createdAt,value
2023-04-22T00:00:31.036Z,18.9286
2023-04-22T00:01:39.090Z,15.4286
2023-04-22T00:02:47.128Z,13.1429
2023-04-22T00:03:55.207Z,12.8571
2023-04-22T00:05:03.353Z,11.7143
2023-04-22T00:06:11.530Z,9.5714
2023-04-22T00:07:19.420Z,4.7857
2023-04-22T00:08:27.473Z,2.7143
2023-04-22T00:09:35.634Z,0.0000
2023-04-22T00:10:43.558Z,0.1429
2023-04-22T00:11:51.685Z,0.0000
2023-04-22T00:12:59.766Z,0.0000
2023-04-22T00:14:07.782Z,0.0000
2023-04-22T00:15:16.042Z,0.0000
2023-04-22T00:16:23.916Z,0.0000
2023-04-22T00:17:32.025Z,0.0000
2023-04-22T00:18:39.899Z,0.0000
2023-04-22T00:19:47.949Z,0.0000
2023-04-22T00:20:56.179Z,0.0000
2023-04-22T00:22:04.229Z,0.0000
2023-04-22T00:23:12.347Z,0.0000
2023-04-22T00:24:20.343Z,0.0000
2023-04-22T00:25:28.427Z,0.0000
2023-04-22T00:26:36.554Z,0.0000
2023-04-22T00:27:44.422Z,0.0000
2023-04-22T00:28:52.659Z,0.0000
2023-04-22T00:30:00.708Z,0.0000
2023-04-22T00:31:08.804Z,0.0000
2023-04-22T00:32:16.704Z,0.0000
2023-04-22T00:33:24.747Z,0.0000
2023-04-22T00:34:32.806Z,0.0000
2023-04-22T00:35:41.640Z,0.0000
2023-04-22T00:36:49.030Z,0.0000
2023-04-22T00:37:57.218Z,0.0000
2023-04-22T00:39:05.212Z,0.5714
2023-04-22T00:40:13.320Z,12.5000
2023-04-22T00:41:21.329Z,17.7143
2023-04-22T00:42:29.438Z,24.6429
2023-04-22T00:43:37.479Z,24.4286
2023-04-22T00:44:45.547Z,18.1429
2023-04-22T00:45:53.741Z,16.2857
2023-04-22T00:47:01.595Z,14.2143
2023-04-22T00:48:09.699Z,15.7857
2023-04-22T00:49:17.677Z,15.6429
2023-04-22T00:50:26.117Z,20.5714
2023-04-22T00:51:33.989Z,23.0000
2023-04-22T00:52:42.014Z,24.7857
2023-04-22T00:53:50.044Z,27.1429
2023-04-22T00:54:58.139Z,27.7143
2023-04-22T00:56:06.198Z,23.1429
2023-04-22T00:57:14.355Z,18.2857
2023-04-22T00:58:22.291Z,18.0714
2023-04-22T00:59:30.398Z,16.7857
2023-04-22T01:00:38.460Z,12.6429
2023-04-22T01:01:46.442Z,12.0000
2023-04-22T01:02:54.597Z,12.6429
2023-04-22T01:04:02.627Z,16.4286
2023-04-22T01:05:10.954Z,12.2857
2023-04-22T01:06:18.746Z,6.7857
2023-04-22T01:07:26.957Z,4.7143
2023-04-22T01:08:34.930Z,8.5000
2023-04-22T01:09:43.050Z,9.6429
2023-04-22T01:10:51.052Z,9.0000
2023-04-22T01:11:59.112Z,11.3571
2023-04-22T01:13:07.213Z,9.9286
2023-04-22T01:14:15.234Z,7.2857
2023-04-22T01:15:23.305Z,8.2143
2023-04-22T01:16:31.360Z,3.1429
2023-04-22T01:17:39.389Z,1.2143
2023-04-22T01:18:47.388Z,0.6429
2023-04-22T01:19:55.593Z,1.2857
2023-04-22T01:21:03.823Z,0.5000
2023-04-22T01:22:11.947Z,0.0000
2023-04-22T01:23:19.765Z,0.0000
2023-04-22T01:24:27.930Z,0.0714
2023-04-22T01:25:35.896Z,0.0714
2023-04-22T01:26:43.951Z,1.0000
2023-04-22T01:27:52.196Z,0.2143
2023-04-22T01:29:00.121Z,0.3571
2023-04-22T01:30:08.221Z,0.5714
2023-04-22T01:31:16.094Z,0.2857
2023-04-22T01:32:24.203Z,0.2857
2023-04-22T01:33:32.222Z,0.2143
2023-04-22T01:34:40.372Z,0.6429
2023-04-22T01:35:48.604Z,0.6429
2023-04-22T01:36:56.690Z,3.2857
2023-04-22T01:38:04.603Z,10.7857
2023-04-22T01:39:12.720Z,18.2857
2023-04-22T01:40:20.762Z,20.3571
2023-04-22T01:41:28.815Z,30.3571
2023-04-22T01:42:36.873Z,36.7857
2023-04-22T01:43:44.958Z,38.0714
2023-04-22T01:44:53.169Z,39.0000
2023-04-22T01:46:00.944Z,40.7857
2023-04-22T01:47:09.042Z,38.1429
2023-04-22T01:48:17.083Z,39.2143
2023-04-22T01:49:25.255Z,38.7857
2023-04-22T01:50:33.336Z,36.4286
2023-04-22T01:51:41.456Z,37.7857
2023-04-22T01:52:49.618Z,32.2143
2023-04-22T01:53:57.491Z,26.5714
2023-04-22T01:55:05.586Z,21.4286
2023-04-22T01:56:13.641Z,24.5000
2023-04-22T01:57:21.750Z,25.5000
2023-04-22T01:58:29.840Z,22.7857
2023-04-22T01:59:38.194Z,18.1429
2023-04-22T02:00:45.792Z,16.4286
2023-04-22T02:01:53.879Z,21.9286
2023-04-22T02:03:02.282Z,17.2857
2023-04-22T02:04:10.181Z,22.5714
2023-04-22T02:05:18.232Z,22.4286
2023-04-22T02:06:26.329Z,20.1429
2023-04-22T02:07:34.374Z,23.5000
2023-04-22T02:08:42.636Z,20.7143
2023-04-22T02:09:50.977Z,20.0000
2023-04-22T02:10:58.619Z,18.6429
2023-04-22T02:12:06.654Z,15.1429
2023-04-22T02:13:14.722Z,21.6429
2023-04-22T02:14:22.792Z,17.5000
2023-04-22T02:15:30.716Z,16.7143
2023-04-22T02:16:38.798Z,22.7143
2023-04-22T02:17:46.818Z,28.6429
2023-04-22T02:18:55.143Z,29.7143
2023-04-22T02:20:03.166Z,24.4286
2023-04-22T02:21:11.388Z,23.2857
2023-04-22T02:22:19.272Z,20.0000
2023-04-22T02:23:27.294Z,24.8571
2023-04-22T02:24:35.549Z,24.4286
2023-04-22T02:25:43.412Z,19.4286
2023-04-22T02:26:51.490Z,17.4286
2023-04-22T02:27:59.535Z,19.2143
2023-04-22T02:29:07.609Z,25.5714
2023-04-22T02:30:15.648Z,35.7143
2023-04-22T02:31:23.614Z,36.9286
2023-04-22T02:32:31.792Z,38.6429
2023-04-22T02:33:39.907Z,41.3571
2023-04-22T02:34:47.954Z,42.5000
2023-04-22T02:35:56.124Z,43.2143
2023-04-22T02:37:04.084Z,44.0000
2023-04-22T02:38:12.261Z,44.9286
2023-04-22T02:39:20.239Z,49.0000
2023-04-22T02:40:28.399Z,46.2857
2023-04-22T02:41:36.450Z,46.7857
2023-04-22T02:42:44.403Z,38.8571
2023-04-22T02:43:52.497Z,39.3571
2023-04-22T02:45:00.439Z,38.5000
2023-04-22T02:46:08.518Z,34.3571
2023-04-22T02:47:16.587Z,35.0714
2023-04-22T02:48:24.777Z,37.1429
2023-04-22T02:49:32.854Z,42.5000
2023-04-22T02:50:40.949Z,48.1429
2023-04-22T02:51:49.022Z,55.3571
2023-04-22T02:52:57.125Z,57.8571
2023-04-22T02:54:05.191Z,62.7857
2023-04-22T02:55:13.248Z,65.1429
2023-04-22T02:56:21.267Z,64.6429
2023-04-22T02:57:29.518Z,71.2143
2023-04-22T02:58:37.509Z,74.9286
2023-04-22T02:59:45.345Z,74.9286
2023-04-22T03:00:53.440Z,78.7143
2023-04-22T03:02:01.714Z,77.5000
2023-04-22T03:03:09.819Z,75.3571
2023-04-22T03:04:17.843Z,78.7857
2023-04-22T03:05:25.838Z,80.6429
2023-04-22T03:06:33.886Z,84.7857
2023-04-22T03:07:41.961Z,86.5714
2023-04-22T03:08:50.070Z,85.2857
2023-04-22T03:09:58.292Z,81.6429
2023-04-22T03:11:06.125Z,74.5714
2023-04-22T03:12:14.222Z,72.0714
2023-04-22T03:13:22.273Z,71.7857
2023-04-22T03:14:30.252Z,67.8571
2023-04-22T03:15:38.294Z,66.3571
2023-04-22T03:16:46.378Z,72.7143
2023-04-22T03:17:54.565Z,73.5714
2023-04-22T03:19:02.654Z,75.7143
2023-04-22T03:20:10.766Z,72.0000
2023-04-22T03:21:18.777Z,74.2143
2023-04-22T03:22:26.829Z,73.3571
2023-04-22T03:23:34.887Z,74.7143
2023-04-22T03:24:42.949Z,68.5714
2023-04-22T03:25:51.112Z,60.4286
2023-04-22T03:26:59.125Z,55.1429
2023-04-22T03:28:07.148Z,51.5714
2023-04-22T03:29:15.089Z,46.9286
2023-04-22T03:30:23.185Z,39.6429
2023-04-22T03:31:31.304Z,43.7857
2023-04-22T03:32:39.447Z,42.4286
2023-04-22T03:33:47.457Z,43.9286
2023-04-22T03:34:55.576Z,44.0000
2023-04-22T03:36:03.642Z,40.1429
2023-04-22T03:37:11.781Z,38.5000
2023-04-22T03:38:20.115Z,36.0714
2023-04-22T03:39:27.842Z,34.1429
2023-04-22T03:40:35.899Z,27.9286
2023-04-22T03:41:44.038Z,23.7143
2023-04-22T03:42:52.034Z,20.1429
2023-04-22T03:44:01.775Z,20.6429
2023-04-22T03:45:12.870Z,18.7333
2023-04-22T03:46:21.210Z,20.2857
2023-04-22T03:47:29.326Z,24.0000
2023-04-22T03:48:37.226Z,25.2143
2023-04-22T03:49:45.320Z,23.4286
2023-04-22T03:50:53.365Z,26.0714
2023-04-22T03:52:01.441Z,26.8571
2023-04-22T03:53:09.641Z,27.9286
2023-04-22T03:54:17.551Z,27.1429
2023-04-22T03:55:25.639Z,23.9286
2023-04-22T03:56:33.707Z,22.2143
2023-04-22T03:57:41.651Z,15.8571
2023-04-22T03:58:49.732Z,19.5000
2023-04-22T03:59:57.762Z,26.6429
2023-04-22T04:01:05.942Z,27.7143
2023-04-22T04:02:14.125Z,33.6429
2023-04-22T04:03:22.234Z,40.5000
2023-04-22T04:04:30.646Z,46.9286
2023-04-22T04:05:38.339Z,53.4286
2023-04-22T04:06:46.241Z,56.5000
2023-04-22T04:07:54.308Z,58.6429
2023-04-22T04:09:02.468Z,59.2143
2023-04-22T04:10:10.552Z,57.7857
2023-04-22T04:11:18.526Z,61.3571
2023-04-22T04:12:26.517Z,69.6429
2023-04-22T04:13:34.573Z,73.5000
2023-04-22T04:14:42.680Z,78.2143
2023-04-22T04:15:50.924Z,79.9286
2023-04-22T04:16:58.905Z,84.7857
2023-04-22T04:18:07.072Z,84.6429
2023-04-22T04:19:14.997Z,86.3571
2023-04-22T04:20:23.145Z,84.8571
2023-04-22T04:21:31.141Z,78.5714
2023-04-22T04:22:39.242Z,78.5714
2023-04-22T04:23:47.238Z,80.2857
2023-04-22T04:24:55.505Z,84.2857
2023-04-22T04:26:03.423Z,85.7143
2023-04-22T04:27:11.349Z,86.9286
2023-04-22T04:28:19.442Z,84.5714
2023-04-22T04:29:27.511Z,81.9286
2023-04-22T04:30:35.768Z,78.1429
2023-04-22T04:31:44.018Z,78.7857
2023-04-22T04:32:51.917Z,78.9286
2023-04-22T04:33:59.872Z,77.2143
2023-04-22T04:35:08.102Z,71.7857
2023-04-22T04:36:16.071Z,67.7857
2023-04-22T04:37:24.046Z,70.1429
2023-04-22T04:38:32.118Z,66.9286
2023-04-22T04:39:40.523Z,63.0000
2023-04-22T04:40:48.189Z,62.3571
2023-04-22T04:41:56.275Z,55.7143
2023-04-22T04:43:04.340Z,52.2857
2023-04-22T04:44:13.125Z,50.7143
2023-04-22T04:45:20.599Z,60.3571
2023-04-22T04:46:28.748Z,72.7143
2023-04-22T04:47:36.804Z,74.3571
2023-04-22T04:48:44.746Z,73.1429
2023-04-22T04:49:52.849Z,74.0714
2023-04-22T04:51:01.006Z,70.9286
2023-04-22T04:52:09.005Z,64.5714
2023-04-22T04:53:17.020Z,61.5000
2023-04-22T04:54:25.045Z,60.5714
2023-04-22T04:55:33.046Z,62.6429
2023-04-22T04:56:41.130Z,59.3571
2023-04-22T04:57:49.232Z,59.2857
2023-04-22T04:58:57.615Z,58.8571
2023-04-22T05:00:05.514Z,59.9286
2023-04-22T05:01:13.562Z,57.8571
2023-04-22T05:02:21.775Z,54.6429
2023-04-22T05:03:29.816Z,56.8571
2023-04-22T05:04:37.855Z,60.9286
2023-04-22T05:05:45.718Z,61.3571
2023-04-22T05:06:53.815Z,65.8571
2023-04-22T05:08:02.072Z,66.5714
2023-04-22T05:09:09.979Z,64.2143
2023-04-22T05:10:17.925Z,65.4286
2023-04-22T05:11:26.001Z,68.7857
2023-04-22T05:12:34.047Z,71.5714
2023-04-22T05:13:42.262Z,73.2857
2023-04-22T05:14:50.370Z,70.2857
2023-04-22T05:15:58.425Z,72.5000
2023-04-22T05:17:06.391Z,72.6429
2023-04-22T05:18:14.470Z,70.9286
2023-04-22T05:19:22.596Z,75.1429
2023-04-22T05:20:31.612Z,82.7857
2023-04-22T05:21:43.550Z,91.5333
2023-04-22T05:22:51.595Z,95.7857
2023-04-22T05:23:59.592Z,98.5714
2023-04-22T05:25:07.648Z,107.2143
2023-04-22T05:26:15.788Z,111.8571
2023-04-22T05:27:23.923Z,113.9286
2023-04-22T05:28:31.956Z,116.7857
2023-04-22T05:29:40.221Z,119.7143
2023-04-22T05:30:48.100Z,127.5714
2023-04-22T05:31:56.551Z,134.4286
2023-04-22T05:33:04.301Z,131.2857
2023-04-22T05:34:12.506Z,134.0714
2023-04-22T05:35:20.341Z,135.4286
2023-04-22T05:36:31.174Z,134.6429
2023-04-22T05:37:41.246Z,133.6667
2023-04-22T05:38:49.284Z,133.6429
2023-04-22T05:39:57.367Z,129.4286
2023-04-22T05:41:05.675Z,129.4286
2023-04-22T05:42:13.640Z,132.7143
2023-04-22T05:43:21.583Z,134.7857
2023-04-22T05:44:29.683Z,139.1429
2023-04-22T05:45:37.816Z,143.0000
2023-04-22T05:46:45.846Z,145.8571
2023-04-22T05:47:54.105Z,146.7143
2023-04-22T05:49:01.920Z,148.5714
2023-04-22T05:50:10.040Z,149.4286
2023-04-22T05:51:18.171Z,151.3571
2023-04-22T05:52:26.038Z,148.9286
2023-04-22T05:53:34.183Z,148.5000
2023-04-22T05:54:42.179Z,143.1429
2023-04-22T05:55:50.339Z,145.0000
2023-04-22T05:56:58.399Z,147.8571
2023-04-22T05:58:06.461Z,150.4286
2023-04-22T05:59:14.663Z,148.0000
2023-04-22T06:00:22.576Z,153.0000
2023-04-22T06:01:30.638Z,152.3571
2023-04-22T06:02:38.835Z,153.0714
2023-04-22T06:03:46.913Z,154.3571
2023-04-22T06:04:55.048Z,155.2857
2023-04-22T06:06:02.936Z,157.0714
2023-04-22T06:07:10.906Z,155.3571
2023-04-22T06:08:18.965Z,156.0714
2023-04-22T06:09:27.147Z,153.0714
2023-04-22T06:10:35.231Z,157.2143
2023-04-22T06:11:43.304Z,158.1429
2023-04-22T06:12:51.417Z,158.5000
2023-04-22T06:13:59.363Z,158.1429
2023-04-22T06:15:07.642Z,155.5714
2023-04-22T06:16:15.651Z,161.7857
2023-04-22T06:17:23.685Z,160.9286
2023-04-22T06:18:31.720Z,162.7143
2023-04-22T06:19:40.084Z,161.3571
2023-04-22T06:20:47.788Z,157.7857
2023-04-22T06:21:55.797Z,160.2857
2023-04-22T06:23:03.870Z,160.0714
2023-04-22T06:24:11.996Z,159.9286
2023-04-22T06:25:20.067Z,161.2857
2023-04-22T06:26:28.198Z,160.0714
2023-04-22T06:27:36.194Z,160.3571
2023-04-22T06:28:44.262Z,161.2857
2023-04-22T06:29:52.482Z,162.7143
2023-04-22T06:31:00.407Z,165.7143
2023-04-22T06:32:08.558Z,170.2857
2023-04-22T06:33:16.650Z,172.0714
2023-04-22T06:34:24.658Z,174.4286
2023-04-22T06:35:32.575Z,175.7857
2023-04-22T06:36:40.657Z,180.3571
2023-04-22T06:37:48.738Z,181.4286
2023-04-22T06:38:56.917Z,181.7857
2023-04-22T06:40:04.905Z,185.6429
2023-04-22T06:41:13.007Z,188.1429
2023-04-22T06:42:21.032Z,188.8571
2023-04-22T06:43:29.152Z,189.5000
2023-04-22T06:44:37.157Z,190.9286
2023-04-22T06:45:45.291Z,194.5714
2023-04-22T06:46:54.758Z,194.0000
2023-04-22T06:48:06.226Z,193.4667
2023-04-22T06:49:14.273Z,199.0000
2023-04-22T06:50:22.352Z,199.1429
2023-04-22T06:51:30.341Z,198.9286
2023-04-22T06:52:38.423Z,195.8571
2023-04-22T06:53:46.487Z,196.1429
2023-04-22T06:54:54.599Z,200.2143
2023-04-22T06:56:02.672Z,203.3571
2023-04-22T06:57:10.705Z,203.4286
2023-04-22T06:58:18.809Z,206.7143
2023-04-22T06:59:26.887Z,208.7143
2023-04-22T07:00:34.963Z,209.7143
2023-04-22T07:01:43.095Z,210.0000
2023-04-22T07:02:51.191Z,211.4286
2023-04-22T07:03:59.129Z,216.1429
2023-04-22T07:05:07.146Z,218.1429
2023-04-22T07:06:15.204Z,221.8571
2023-04-22T07:07:23.256Z,221.8571
2023-04-22T07:08:31.463Z,227.9286
2023-04-22T07:09:39.708Z,226.0000
2023-04-22T07:10:47.558Z,227.5714
2023-04-22T07:11:55.571Z,230.3571
2023-04-22T07:13:03.768Z,232.4286
2023-04-22T07:14:11.688Z,233.0000
2023-04-22T07:15:19.895Z,232.1429
2023-04-22T07:16:27.972Z,235.0714
2023-04-22T07:17:36.010Z,236.2143
2023-04-22T07:18:43.897Z,235.0000
2023-04-22T07:19:51.971Z,237.7857
2023-04-22T07:21:00.035Z,241.7857
2023-04-22T07:22:08.127Z,242.3571
2023-04-22T07:23:16.183Z,242.5714
2023-04-22T07:24:24.383Z,243.9286
2023-04-22T07:25:32.322Z,245.9286
2023-04-22T07:26:40.528Z,246.0000
2023-04-22T07:27:48.514Z,243.7143
2023-04-22T07:28:56.541Z,245.3571
2023-04-22T07:30:04.586Z,248.2143
2023-04-22T07:31:12.683Z,246.3571
2023-04-22T07:32:20.855Z,247.0714
2023-04-22T07:33:28.747Z,248.7857
2023-04-22T07:34:36.791Z,248.8571
2023-04-22T07:35:44.829Z,249.5714
2023-04-22T07:36:52.870Z,250.5000
2023-04-22T07:38:01.035Z,248.9286
2023-04-22T07:39:09.251Z,254.0714
2023-04-22T07:40:17.165Z,254.6429
2023-04-22T07:41:25.245Z,255.1429
2023-04-22T07:42:33.415Z,257.1429
2023-04-22T07:43:41.355Z,257.6429
2023-04-22T07:44:49.455Z,259.5714
2023-04-22T07:45:57.538Z,257.2857
2023-04-22T07:47:05.690Z,259.7857
2023-04-22T07:48:13.622Z,260.5714
2023-04-22T07:49:21.632Z,263.3571
2023-04-22T07:50:29.731Z,261.7143
2023-04-22T07:51:37.827Z,263.6429
2023-04-22T07:52:45.940Z,265.0000
2023-04-22T07:53:53.912Z,267.5000
2023-04-22T07:55:02.162Z,268.2143
2023-04-22T07:56:10.105Z,271.5000
2023-04-22T07:57:18.151Z,271.5000
2023-04-22T07:58:26.234Z,273.2857
2023-04-22T07:59:34.300Z,276.2143
2023-04-22T08:00:42.494Z,274.2143
2023-04-22T08:01:50.651Z,277.9286
2023-04-22T08:02:58.577Z,278.4286
2023-04-22T08:04:06.656Z,280.2143
2023-04-22T08:05:14.634Z,286.2857
2023-04-22T08:06:23.022Z,287.2857
2023-04-22T08:07:33.394Z,288.5714
2023-04-22T08:08:43.734Z,289.9333
2023-04-22T08:09:51.939Z,294.5714
2023-04-22T08:10:59.932Z,295.3571
2023-04-22T08:12:07.906Z,297.0714
2023-04-22T08:13:18.136Z,300.0714
2023-04-22T08:14:28.877Z,301.5333
2023-04-22T08:15:36.940Z,300.5000
2023-04-22T08:16:44.935Z,302.4286
2023-04-22T08:17:53.039Z,312.3571
2023-04-22T08:19:01.280Z,314.1429
2023-04-22T08:20:09.263Z,318.1429
2023-04-22T08:21:17.295Z,317.7857
2023-04-22T08:22:25.344Z,319.2857
2023-04-22T08:23:33.488Z,323.8571
2023-04-22T08:24:41.444Z,323.7143
2023-04-22T08:25:49.583Z,322.1429
2023-04-22T08:26:57.617Z,324.2857
2023-04-22T08:28:05.707Z,324.2857
2023-04-22T08:29:13.743Z,326.0714
2023-04-22T08:30:21.741Z,328.4286
2023-04-22T08:31:29.772Z,325.7857
2023-04-22T08:32:37.877Z,328.9286
2023-04-22T08:33:46.083Z,329.2857
2023-04-22T08:34:57.720Z,328.4286
2023-04-22T08:36:06.984Z,328.4000
2023-04-22T08:37:15.065Z,331.2143
2023-04-22T08:38:23.056Z,328.2857
2023-04-22T08:39:31.298Z,327.2143
2023-04-22T08:40:39.349Z,328.7857
2023-04-22T08:41:47.276Z,326.6429
2023-04-22T08:42:55.425Z,330.6429
2023-04-22T08:44:03.334Z,327.0000
2023-04-22T08:45:11.436Z,329.5714
2023-04-22T08:46:19.471Z,326.6429
2023-04-22T08:47:27.625Z,326.7143
2023-04-22T08:48:35.734Z,329.5000
2023-04-22T08:49:43.641Z,326.9286
2023-04-22T08:50:51.898Z,327.0714
2023-04-22T08:51:59.971Z,323.7143
2023-04-22T08:53:07.912Z,322.7857
2023-04-22T08:54:16.062Z,324.0714
2023-04-22T08:55:24.040Z,322.4286
2023-04-22T08:56:32.125Z,326.9286
2023-04-22T08:57:40.196Z,327.8571
2023-04-22T08:58:48.231Z,332.1429
2023-04-22T08:59:56.242Z,335.0000
2023-04-22T09:01:04.318Z,335.4286
2023-04-22T09:02:12.543Z,336.7857
2023-04-22T09:03:20.574Z,341.2143
2023-04-22T09:04:28.604Z,342.8571
2023-04-22T09:05:36.687Z,345.1429
2023-04-22T09:06:44.664Z,348.1429
2023-04-22T09:07:52.872Z,353.6429
2023-04-22T09:09:00.826Z,354.5714
2023-04-22T09:10:08.862Z,355.5000
2023-04-22T09:11:16.911Z,359.3571
2023-04-22T09:12:24.994Z,359.5714
2023-04-22T09:13:33.014Z,360.0714
2023-04-22T09:14:41.031Z,361.3571
2023-04-22T09:15:49.075Z,359.2143
2023-04-22T09:16:57.388Z,357.5714
2023-04-22T09:18:05.295Z,360.0000
2023-04-22T09:19:13.429Z,361.0000
2023-04-22T09:20:21.488Z,361.8571
2023-04-22T09:21:29.494Z,363.6429
2023-04-22T09:22:37.523Z,361.8571
2023-04-22T09:23:45.720Z,366.2143
2023-04-22T09:24:53.723Z,363.0714
2023-04-22T09:26:01.744Z,367.4286
2023-04-22T09:27:09.768Z,371.0714
2023-04-22T09:28:17.919Z,372.2143
2023-04-22T09:29:25.837Z,371.2857
2023-04-22T09:30:34.082Z,375.6429
2023-04-22T09:31:41.994Z,375.7143
2023-04-22T09:32:50.146Z,375.5000
2023-04-22T09:33:58.146Z,375.5714
2023-04-22T09:35:06.311Z,373.2143
2023-04-22T09:36:14.291Z,373.9286
2023-04-22T09:37:22.337Z,375.0000
2023-04-22T09:38:30.432Z,374.2143
2023-04-22T09:39:38.711Z,373.1429
2023-04-22T09:40:46.488Z,373.3571
2023-04-22T09:41:54.659Z,376.4286
2023-04-22T09:43:02.601Z,379.5000
2023-04-22T09:44:10.711Z,386.0000
2023-04-22T09:45:18.940Z,388.9286
2023-04-22T09:46:26.742Z,396.4286
2023-04-22T09:47:34.916Z,394.3571
2023-04-22T09:48:43.031Z,389.7857
2023-04-22T09:49:51.083Z,384.8571
2023-04-22T09:50:59.072Z,385.8571
2023-04-22T09:52:07.174Z,386.9286
2023-04-22T09:53:15.216Z,391.7143
2023-04-22T09:54:23.242Z,394.6429
2023-04-22T09:55:31.477Z,395.7143
2023-04-22T09:56:39.394Z,401.2143
2023-04-22T09:57:47.432Z,402.7143
2023-04-22T09:58:55.446Z,402.0000
2023-04-22T10:00:03.472Z,407.4286
2023-04-22T10:01:11.594Z,406.6429
2023-04-22T10:02:19.698Z,402.5714
2023-04-22T10:03:27.853Z,406.2857
2023-04-22T10:04:36.073Z,411.5714
2023-04-22T10:05:43.854Z,415.2143
2023-04-22T10:06:51.931Z,414.7143
2023-04-22T10:08:00.183Z,416.2857
2023-04-22T10:09:09.411Z,418.6429
2023-04-22T10:10:16.102Z,415.9286
2023-04-22T10:11:24.540Z,412.4286
2023-04-22T10:12:35.532Z,405.1429
2023-04-22T10:13:45.112Z,397.8000
2023-04-22T10:14:53.372Z,389.2143
2023-04-22T10:16:01.336Z,393.2143
2023-04-22T10:17:09.386Z,399.5000
2023-04-22T10:18:17.381Z,398.1429
2023-04-22T10:19:25.609Z,395.2857
2023-04-22T10:20:33.620Z,398.7857
2023-04-22T10:21:41.675Z,405.2857
2023-04-22T10:22:49.723Z,417.3571
2023-04-22T10:23:57.773Z,438.6429
2023-04-22T10:25:06.027Z,471.2143
2023-04-22T10:26:13.845Z,507.0714
2023-04-22T10:27:21.878Z,541.0000
2023-04-22T10:28:29.998Z,572.2143
2023-04-22T10:29:38.316Z,613.0714
2023-04-22T10:30:46.185Z,645.6429
2023-04-22T10:31:54.260Z,676.2857
2023-04-22T10:33:02.328Z,703.2857
2023-04-22T10:34:10.313Z,732.2857
2023-04-22T10:35:18.496Z,780.0000
2023-04-22T10:36:26.486Z,889.6429
2023-04-22T10:37:34.514Z,957.8571
2023-04-22T10:38:42.556Z,1009.0714
2023-04-22T10:39:50.740Z,1014.7143
2023-04-22T10:40:58.726Z,1023.2143
2023-04-22T10:42:06.727Z,1077.4286
2023-04-22T10:43:14.778Z,1212.5714
2023-04-22T10:44:23.006Z,1284.0714
2023-04-22T10:45:30.951Z,1353.4286
2023-04-22T10:46:39.099Z,1401.6428
2023-04-22T10:47:47.256Z,1474.7858
2023-04-22T10:48:55.225Z,1530.9286
2023-04-22T10:50:03.291Z,1516.1428
2023-04-22T10:51:11.506Z,1547.8572
2023-04-22T10:52:19.531Z,1596.0000
2023-04-22T10:53:27.568Z,1605.8572
2023-04-22T10:54:35.606Z,1604.7142
2023-04-22T10:55:43.780Z,1572.8572
2023-04-22T10:56:57.584Z,1474.7142
2023-04-22T10:58:04.648Z,1383.6666
2023-04-22T10:59:12.738Z,1353.4286
2023-04-22T11:00:20.861Z,1406.5714
2023-04-22T11:01:28.917Z,1384.7142
2023-04-22T11:02:36.951Z,1367.1428
2023-04-22T11:03:45.038Z,1384.1428
2023-04-22T11:04:53.083Z,1335.1428
2023-04-22T11:06:01.081Z,1274.0714
2023-04-22T11:07:09.251Z,1214.4286
2023-04-22T11:08:17.201Z,1193.7142
2023-04-22T11:09:25.161Z,1180.9286
2023-04-22T11:10:33.284Z,1139.1428
2023-04-22T11:11:41.328Z,1110.8572
2023-04-22T11:12:49.435Z,1075.8572
2023-04-22T11:13:57.482Z,988.4286
2023-04-22T11:15:05.615Z,937.8571
2023-04-22T11:16:13.659Z,935.7143
2023-04-22T11:17:21.704Z,900.4286
2023-04-22T11:18:29.758Z,849.1429
2023-04-22T11:19:38.212Z,754.2857
2023-04-22T11:20:45.932Z,688.6429
2023-04-22T11:21:54.088Z,655.7857
2023-04-22T11:23:02.093Z,640.6429
2023-04-22T11:24:10.033Z,621.7143
2023-04-22T11:25:18.077Z,602.5000
2023-04-22T11:26:26.182Z,593.9286
2023-04-22T11:27:34.234Z,576.4286
2023-04-22T11:28:42.344Z,559.5714
2023-04-22T11:29:50.391Z,546.2143
2023-04-22T11:30:58.469Z,528.2857
2023-04-22T11:32:06.426Z,519.7857
2023-04-22T11:33:14.515Z,529.5714
2023-04-22T11:34:22.688Z,537.2143
2023-04-22T11:35:30.809Z,552.4286
2023-04-22T11:36:38.820Z,568.8571
2023-04-22T11:37:46.863Z,580.4286
2023-04-22T11:38:54.811Z,598.5000
2023-04-22T11:40:21.373Z,613.2857
2023-04-22T11:41:15.897Z,619.8666
2023-04-22T11:42:24.079Z,608.5714
2023-04-22T11:43:31.908Z,591.7857
2023-04-22T11:44:39.975Z,587.4286
2023-04-22T11:45:48.094Z,588.8571
2023-04-22T11:46:56.317Z,584.2143
2023-04-22T11:48:04.220Z,582.8571
2023-04-22T11:49:12.373Z,565.0000
2023-04-22T11:50:20.241Z,554.0714
2023-04-22T11:51:28.347Z,540.9286
2023-04-22T11:52:36.372Z,541.4286
2023-04-22T11:53:44.454Z,562.7857
2023-04-22T11:54:52.495Z,587.1429
2023-04-22T11:56:00.713Z,621.8571
2023-04-22T11:57:08.784Z,630.0714
2023-04-22T11:58:16.703Z,625.5714
2023-04-22T11:59:24.923Z,643.8571
2023-04-22T12:00:32.945Z,680.2857
2023-04-22T12:01:41.118Z,788.0000
2023-04-22T12:02:49.132Z,899.0000
2023-04-22T12:03:57.208Z,900.7143
2023-04-22T12:05:05.127Z,888.9286
2023-04-22T12:06:13.097Z,757.2857
2023-04-22T12:07:21.186Z,697.4286
2023-04-22T12:08:29.238Z,664.8571
2023-04-22T12:09:37.484Z,628.5000
2023-04-22T12:10:45.384Z,601.6429
2023-04-22T12:11:53.434Z,578.9286
2023-04-22T12:13:01.578Z,558.0000
2023-04-22T12:14:09.569Z,538.7143
2023-04-22T12:15:18.751Z,518.1429
2023-04-22T12:16:25.749Z,505.7857
2023-04-22T12:17:33.727Z,495.7857
2023-04-22T12:18:41.799Z,491.4286
2023-04-22T12:19:49.916Z,479.7857
2023-04-22T12:20:58.001Z,467.7143
2023-04-22T12:22:06.246Z,457.1429
2023-04-22T12:23:14.012Z,449.8571
2023-04-22T12:24:22.124Z,443.0000
2023-04-22T12:25:30.145Z,442.7857
2023-04-22T12:26:38.202Z,438.0714
2023-04-22T12:27:46.257Z,433.0714
2023-04-22T12:28:54.318Z,430.4286
2023-04-22T12:30:02.466Z,431.7143
2023-04-22T12:31:10.558Z,430.0714
2023-04-22T12:32:18.550Z,422.5714
2023-04-22T12:33:26.554Z,415.1429
2023-04-22T12:34:34.653Z,405.5000
2023-04-22T12:35:42.763Z,406.5000
2023-04-22T12:36:50.753Z,411.7143
2023-04-22T12:37:58.830Z,415.5714
2023-04-22T12:39:06.861Z,418.2857
2023-04-22T12:40:14.960Z,419.0714
2023-04-22T12:41:23.281Z,422.1429
2023-04-22T12:42:31.138Z,432.0000
2023-04-22T12:43:39.235Z,435.7857
2023-04-22T12:44:47.188Z,436.4286
2023-04-22T12:45:55.329Z,439.2857
2023-04-22T12:47:03.310Z,439.5000
2023-04-22T12:48:11.717Z,436.2143
2023-04-22T12:49:19.477Z,443.7857
2023-04-22T12:50:27.621Z,448.4286
2023-04-22T12:51:35.955Z,447.1429
2023-04-22T12:52:43.651Z,446.5714
2023-04-22T12:53:51.691Z,449.7857
2023-04-22T12:54:59.772Z,464.0714
2023-04-22T12:56:07.896Z,471.2857
2023-04-22T12:57:15.866Z,479.7857
2023-04-22T12:58:23.912Z,482.7857
2023-04-22T12:59:32.109Z,490.3571
2023-04-22T13:00:40.119Z,486.6429
2023-04-22T13:01:48.267Z,481.5000
2023-04-22T13:02:56.307Z,476.3571
2023-04-22T13:04:04.543Z,466.5714
2023-04-22T13:05:12.442Z,455.7143
2023-04-22T13:06:20.472Z,447.2857
2023-04-22T13:07:28.382Z,446.1429
2023-04-22T13:08:36.459Z,447.6429
2023-04-22T13:09:44.515Z,448.2143
2023-04-22T13:10:52.685Z,445.0714
2023-04-22T13:12:00.794Z,450.1429
2023-04-22T13:14:21.694Z,467.0000
2023-04-22T13:15:29.798Z,468.8571
2023-04-22T13:16:37.962Z,486.8571
2023-04-22T13:17:47.624Z,505.1429
2023-04-22T13:18:58.817Z,510.7333
2023-04-22T13:20:06.798Z,511.7143
2023-04-22T13:21:14.902Z,507.8571
2023-04-22T13:22:22.932Z,497.2143
2023-04-22T13:23:31.130Z,482.5000
2023-04-22T13:24:39.126Z,465.9286
2023-04-22T13:25:47.131Z,446.0714
2023-04-22T13:26:55.289Z,435.7857
2023-04-22T13:28:03.315Z,434.4286
2023-04-22T13:29:11.392Z,423.6429
2023-04-22T13:30:19.508Z,407.6429
2023-04-22T13:31:27.505Z,399.0000